Gloucester, North Carolina
Current Conditions -  °F | °C
As of 7:58 PM on Saturday 25 Oct 2014 (Local Time) from KMRH Reporting Station
Clear Clear  
Wind Chill: 64°   Ceiling: Unl
Heat Index: 64°   Visibility: 10mi
Dew Point: 54°   Wind: 8mph
Humidity: 70%   Direction: 250°WSW
Pressure: 29.91"   Gusts: NA
Location:  34.73°N, 76.54°W
Report Text: KMRH 252358Z AUTO 25007KT 10SM CLR 18/12 A2991 RMK AO2 SLP129 T01780122 10222 20178 53006 TSNO $
Loading
Personal Weather Stations






























Interactive Weather Map
Tropical Storm Tracking
New forecast layout! Learn more

10-Day Weather Forecast

Advertisements
Track Severe Weather on mobile